Time;durP1;ratioP1;P1;durP2;ratioP2;P2;SDS_P1;SDS_P2;PMS_P1;PMS_P2;Temp;Humidity;BMP_temperature;BMP_pressure;BME280_temperature;BME280_humidity;BME280_pressure;Samples;Min_cycle;Max_cycle;Signal;HPM_P1;HPM_P2
2022/01/10 00:00:17;;;;;;;19.73;11.55;;;-1.20;99.90;;;;;;5095297;28;20244;-75
2022/01/10 00:02:45;;;;;;;18.10;12.20;;;-1.20;99.90;;;;;;5113759;28;20166;-75
2022/01/10 00:05:11;;;;;;;18.63;11.18;;;-1.20;99.90;;;;;;5132416;28;20208;-76
2022/01/10 00:07:38;;;;;;;17.52;11.15;;;-1.20;99.90;;;;;;5113855;28;20197;-75
2022/01/10 00:10:04;;;;;;;20.73;11.88;;;-1.20;99.90;;;;;;5113837;28;20186;-76
2022/01/10 00:12:30;;;;;;;18.98;10.00;;;-1.20;99.90;;;;;;5131782;28;20212;-76
2022/01/10 00:14:56;;;;;;;22.33;11.30;;;-1.20;99.90;;;;;;5112466;28;20167;-75
2022/01/10 00:17:22;;;;;;;19.75;11.85;;;-1.30;99.90;;;;;;5132397;28;20197;-75
2022/01/10 00:19:48;;;;;;;17.90;10.27;;;-1.30;99.90;;;;;;5109623;28;20198;-75
2022/01/10 00:22:14;;;;;;;16.88;10.20;;;-1.30;99.90;;;;;;5092908;28;20187;-76
2022/01/10 00:24:40;;;;;;;15.05;11.15;;;-1.20;99.90;;;;;;5116132;28;20190;-75
2022/01/10 00:27:06;;;;;;;21.95;12.65;;;-1.20;99.90;;;;;;5131825;28;20198;-75
2022/01/10 00:29:32;;;;;;;16.20;10.55;;;-1.20;99.90;;;;;;5117723;28;20209;-76
2022/01/10 00:31:58;;;;;;;22.40;11.98;;;-1.20;99.90;;;;;;5110196;28;20175;-76
2022/01/10 00:34:25;;;;;;;19.13;11.07;;;-1.30;99.90;;;;;;5092788;28;20174;-76
2022/01/10 00:36:52;;;;;;;22.23;11.95;;;-1.20;99.90;;;;;;5110070;28;20176;-75
2022/01/10 00:39:19;;;;;;;18.95;10.23;;;-1.20;99.90;;;;;;5093159;28;20210;-76
2022/01/10 00:41:45;;;;;;;22.15;10.77;;;-1.20;99.90;;;;;;5111330;28;20159;-75
2022/01/10 00:44:13;;;;;;;18.63;10.40;;;-1.20;99.90;;;;;;5130666;28;20191;-75
2022/01/10 00:46:40;;;;;;;18.20;11.07;;;-1.20;99.90;;;;;;5112121;28;20285;-76
2022/01/10 00:49:07;;;;;;;17.58;10.77;;;-1.20;99.90;;;;;;5113092;28;20190;-75
2022/01/10 00:51:33;;;;;;;15.75;10.32;;;-1.20;99.90;;;;;;5131608;28;20147;-75
2022/01/10 00:54:00;;;;;;;16.58;10.25;;;-1.10;99.90;;;;;;5112672;28;20182;-75
2022/01/10 00:56:26;;;;;;;15.65;10.52;;;-1.10;99.90;;;;;;5124142;28;20169;-75
2022/01/10 00:58:52;;;;;;;15.50;9.55;;;-1.10;99.90;;;;;;5092314;28;20226;-75
2022/01/10 01:01:19;;;;;;;15.80;9.88;;;-1.10;99.90;;;;;;5110866;28;20201;-75
2022/01/10 01:03:46;;;;;;;20.42;10.93;;;-1.10;99.90;;;;;;5095917;28;20206;-75
2022/01/10 01:06:14;;;;;;;12.90;9.48;;;-1.10;99.90;;;;;;5110555;28;20578;-76
2022/01/10 01:08:41;;;;;;;17.05;11.60;;;-1.10;99.90;;;;;;5129464;28;20194;-75
2022/01/10 01:14:24;;;;;;;20.30;11.95;;;-1.00;99.90;;;;;;5032799;28;20220;-75
2022/01/10 01:17:09;;;;;;;14.25;9.07;;;-1.00;99.90;;;;;;5047713;28;20203;-75
2022/01/10 01:25:05;;;;;;;18.75;10.50;;;-1.00;99.90;;;;;;5125705;28;20186;-75
2022/01/10 01:27:31;;;;;;;16.65;9.75;;;-1.00;99.90;;;;;;5112478;28;20198;-75
2022/01/10 01:30:00;;;;;;;17.90;11.13;;;-1.00;99.90;;;;;;5112493;28;20248;-75
2022/01/10 01:32:26;;;;;;;15.48;9.10;;;-1.00;99.90;;;;;;5130838;28;20174;-75
2022/01/10 01:34:56;;;;;;;14.02;8.50;;;-0.90;99.90;;;;;;5130750;28;20172;-75
2022/01/10 01:37:22;;;;;;;18.27;10.35;;;-0.90;99.90;;;;;;5113071;28;20336;-75
2022/01/10 01:39:48;;;;;;;16.17;10.48;;;-0.90;99.90;;;;;;5110166;28;20172;-75
2022/01/10 01:42:38;;;;;;;16.70;10.50;;;-0.90;99.90;;;;;;5110214;28;20226;-75
2022/01/10 01:45:02;;;;;;;21.63;10.88;;;-1.00;99.90;;;;;;5109491;28;20187;-75
2022/01/10 01:47:28;;;;;;;15.15;9.23;;;-1.00;99.90;;;;;;5091124;28;20233;-76
2022/01/10 01:49:56;;;;;;;15.70;10.30;;;-1.00;99.90;;;;;;5097518;28;20171;-75
2022/01/10 01:52:22;;;;;;;14.35;8.82;;;-1.00;99.90;;;;;;5112077;28;20155;-75
2022/01/10 01:54:48;;;;;;;14.52;8.88;;;-1.00;99.90;;;;;;5130360;28;20219;-75
2022/01/10 01:57:14;;;;;;;18.85;9.88;;;-1.00;99.90;;;;;;5129452;28;20193;-75
2022/01/10 01:59:40;;;;;;;21.02;10.55;;;-1.00;99.90;;;;;;5111649;28;20230;-75
2022/01/10 02:02:06;;;;;;;15.35;9.60;;;-1.00;99.90;;;;;;5111894;28;20187;-75
2022/01/10 02:04:32;;;;;;;17.10;10.85;;;-1.00;99.90;;;;;;5117068;28;20168;-75
2022/01/10 02:06:57;;;;;;;18.15;9.63;;;-1.00;99.90;;;;;;5114296;28;20194;-76
2022/01/10 02:09:23;;;;;;;17.08;10.05;;;-1.00;99.90;;;;;;5094335;28;20199;-75
2022/01/10 02:11:49;;;;;;;20.25;10.75;;;-1.00;99.90;;;;;;5091626;28;20160;-75
2022/01/10 02:14:16;;;;;;;18.23;9.85;;;-1.00;99.90;;;;;;5091575;28;20166;-76
2022/01/10 02:16:45;;;;;;;15.93;10.70;;;-1.00;99.90;;;;;;5122277;28;20201;-75
2022/01/10 02:19:12;;;;;;;17.77;10.00;;;-1.00;99.90;;;;;;5105474;28;20203;-75
2022/01/10 02:21:38;;;;;;;17.52;9.80;;;-1.10;99.90;;;;;;5111856;28;20587;-75
2022/01/10 02:24:05;;;;;;;16.58;10.63;;;-1.00;99.90;;;;;;5111720;28;20170;-75
2022/01/10 02:26:32;;;;;;;16.35;9.73;;;-1.00;99.90;;;;;;5129957;28;20272;-75
2022/01/10 02:28:58;;;;;;;24.05;10.90;;;-1.00;99.90;;;;;;5129898;28;20192;-75
2022/01/10 02:31:25;;;;;;;17.33;11.73;;;-1.00;99.90;;;;;;5123897;28;20181;-74
2022/01/10 02:33:56;;;;;;;15.18;11.02;;;-1.00;99.90;;;;;;5111556;28;20540;-74
2022/01/10 02:36:26;;;;;;;19.50;10.77;;;-1.00;99.90;;;;;;5111593;28;20619;-77
2022/01/10 02:38:56;;;;;;;20.65;9.98;;;-1.00;99.90;;;;;;5129874;28;20198;-76
2022/01/10 02:41:28;;;;;;;19.05;10.27;;;-1.00;99.90;;;;;;5129712;28;20216;-76
2022/01/10 02:43:59;;;;;;;16.90;10.35;;;-1.00;99.90;;;;;;5111623;28;20173;-76
2022/01/10 02:46:27;;;;;;;15.63;10.38;;;-1.00;99.90;;;;;;5094216;28;20191;-76
2022/01/10 02:48:53;;;;;;;15.27;11.10;;;-1.00;99.90;;;;;;5109195;28;20624;-76
2022/01/10 02:51:20;;;;;;;20.17;11.23;;;-1.00;99.90;;;;;;5108099;28;20159;-76
2022/01/10 02:53:46;;;;;;;22.33;10.63;;;-1.00;99.90;;;;;;5109338;28;20156;-76
2022/01/10 02:56:12;;;;;;;21.05;11.40;;;-1.00;99.90;;;;;;5109323;28;20185;-76
2022/01/10 02:58:38;;;;;;;16.73;10.77;;;-1.00;99.90;;;;;;5089319;28;20692;-76
2022/01/10 03:01:05;;;;;;;16.52;10.00;;;-1.10;99.90;;;;;;5109262;28;20265;-76
2022/01/10 03:03:31;;;;;;;19.65;11.80;;;-1.10;99.90;;;;;;5101680;28;20168;-75
2022/01/10 03:05:59;;;;;;;14.85;10.07;;;-1.10;99.90;;;;;;5089324;28;20252;-75
2022/01/10 03:08:27;;;;;;;16.35;10.88;;;-1.20;99.90;;;;;;5089956;28;20607;-76
2022/01/10 03:10:54;;;;;;;23.10;10.95;;;-1.20;99.90;;;;;;5091645;28;20190;-76
2022/01/10 03:13:20;;;;;;;19.10;11.60;;;-1.20;99.90;;;;;;5082875;28;20180;-75
2022/01/10 03:15:46;;;;;;;15.25;10.10;;;-1.20;99.90;;;;;;5074699;28;20172;-75
2022/01/10 03:18:12;;;;;;;17.58;11.10;;;-1.20;99.90;;;;;;5074635;28;20211;-76
2022/01/10 03:20:38;;;;;;;16.38;10.30;;;-1.30;99.90;;;;;;5092724;28;20164;-75
2022/01/10 03:23:04;;;;;;;21.67;11.18;;;-1.30;99.90;;;;;;5092812;28;20220;-75
2022/01/10 03:25:30;;;;;;;21.02;11.32;;;-1.30;99.90;;;;;;5091231;28;20688;-76
2022/01/10 03:27:56;;;;;;;17.05;10.90;;;-1.20;99.90;;;;;;5091381;28;20195;-76
2022/01/10 03:30:22;;;;;;;14.55;10.10;;;-1.20;99.90;;;;;;5074624;28;20184;-75
2022/01/10 03:32:50;;;;;;;15.75;10.95;;;-1.30;99.90;;;;;;5074460;28;20182;-76
2022/01/10 03:35:17;;;;;;;21.60;11.50;;;-1.30;99.90;;;;;;5095263;28;20186;-75
2022/01/10 03:37:43;;;;;;;22.05;10.10;;;-1.30;99.90;;;;;;5090188;28;20152;-76
2022/01/10 03:40:10;;;;;;;15.00;10.00;;;-1.30;99.90;;;;;;5093520;28;20155;-75
2022/01/10 03:42:37;;;;;;;18.58;10.48;;;-1.30;99.90;;;;;;5107210;28;20179;-76
2022/01/10 03:45:05;;;;;;;19.83;10.70;;;-1.30;99.90;;;;;;5094323;28;20166;-75
2022/01/10 03:47:31;;;;;;;17.48;11.00;;;-1.20;99.90;;;;;;5112430;28;20218;-74
2022/01/10 03:49:57;;;;;;;16.35;11.05;;;-1.30;99.90;;;;;;5094184;28;20183;-75
2022/01/10 03:52:25;;;;;;;13.70;10.05;;;-1.30;99.90;;;;;;5112448;28;20228;-76
2022/01/10 03:54:51;;;;;;;19.50;11.68;;;-1.30;99.90;;;;;;5099814;28;20224;-76
2022/01/10 03:57:17;;;;;;;22.77;11.48;;;-1.30;99.90;;;;;;5091855;28;20168;-75
2022/01/10 03:59:43;;;;;;;17.15;9.98;;;-1.30;99.90;;;;;;5105682;28;20231;-75
2022/01/10 04:02:09;;;;;;;17.85;10.38;;;-1.30;99.90;;;;;;5112370;28;20155;-76
2022/01/10 04:04:37;;;;;;;17.55;11.40;;;-1.40;99.90;;;;;;5112326;28;20160;-75
2022/01/10 04:07:04;;;;;;;20.98;11.45;;;-1.40;99.90;;;;;;5112070;28;20651;-75
2022/01/10 04:09:30;;;;;;;16.45;11.43;;;-1.40;99.90;;;;;;5130593;28;20197;-75
2022/01/10 04:11:56;;;;;;;18.35;11.60;;;-1.50;99.90;;;;;;5114094;28;20234;-75
2022/01/10 04:14:22;;;;;;;19.80;11.93;;;-1.40;99.90;;;;;;5132477;28;20188;-76
2022/01/10 04:16:48;;;;;;;18.70;11.25;;;-1.50;99.90;;;;;;5132149;28;20592;-75
2022/01/10 04:19:13;;;;;;;18.55;11.32;;;-1.40;99.90;;;;;;5132266;28;20198;-75
2022/01/10 04:21:40;;;;;;;20.85;11.63;;;-1.40;99.90;;;;;;5125435;28;20176;-76
2022/01/10 04:24:05;;;;;;;19.70;9.98;;;-1.40;99.90;;;;;;5111860;28;20185;-76
2022/01/10 04:26:32;;;;;;;18.20;11.43;;;-1.50;99.90;;;;;;5111630;28;20178;-75
2022/01/10 04:28:57;;;;;;;17.50;10.35;;;-1.50;99.90;;;;;;5111557;28;20187;-75
2022/01/10 04:31:23;;;;;;;20.15;12.90;;;-1.40;99.90;;;;;;5111795;28;20151;-76
2022/01/10 04:33:49;;;;;;;21.83;11.27;;;-1.40;99.90;;;;;;5111721;28;20157;-75
2022/01/10 04:36:15;;;;;;;15.25;10.32;;;-1.30;99.90;;;;;;5123198;28;20179;-75
2022/01/10 04:38:42;;;;;;;20.23;11.73;;;-1.30;99.90;;;;;;5130368;28;20203;-75
2022/01/10 04:41:10;;;;;;;18.05;10.95;;;-1.30;99.90;;;;;;5130698;28;20194;-75
2022/01/10 04:43:37;;;;;;;20.95;11.55;;;-1.30;99.90;;;;;;5119245;28;20183;-76
2022/01/10 04:46:03;;;;;;;18.50;10.25;;;-1.30;99.90;;;;;;5111262;28;20180;-76
2022/01/10 04:48:29;;;;;;;18.17;10.75;;;-1.30;99.90;;;;;;5110455;28;20195;-75
2022/01/10 04:53:28;;;;;;;16.40;10.63;;;-1.30;99.90;;;;;;5131757;28;20159;-76
2022/01/10 04:55:54;;;;;;;18.50;11.25;;;-1.30;99.90;;;;;;5131726;28;20159;-76
2022/01/10 04:58:20;;;;;;;16.58;10.68;;;-1.30;99.90;;;;;;5129752;28;20202;-76
2022/01/10 05:00:46;;;;;;;21.83;12.05;;;-1.30;99.90;;;;;;5130073;28;20277;-75
2022/01/10 05:03:12;;;;;;;19.13;11.57;;;-1.30;99.90;;;;;;5127260;28;20224;-76
2022/01/10 05:05:37;;;;;;;18.77;11.00;;;-1.30;99.90;;;;;;5130677;28;20195;-76
2022/01/10 05:08:04;;;;;;;25.20;13.10;;;-1.30;99.90;;;;;;5125427;27;20198;-76
2022/01/10 05:10:29;;;;;;;19.27;11.98;;;-1.40;99.90;;;;;;5109303;28;20171;-76
2022/01/10 05:12:55;;;;;;;16.58;10.38;;;-1.40;99.90;;;;;;5110799;28;20174;-76
2022/01/10 05:15:21;;;;;;;18.35;12.15;;;-1.40;99.90;;;;;;5109417;28;20208;-75
2022/01/10 05:17:47;;;;;;;18.23;10.88;;;-1.30;99.90;;;;;;5121610;28;20174;-75
2022/01/10 05:20:13;;;;;;;22.85;10.75;;;-1.30;99.90;;;;;;5131223;28;20147;-75
2022/01/10 05:22:40;;;;;;;16.48;9.93;;;-1.30;99.90;;;;;;5130904;28;20157;-76
2022/01/10 05:25:06;;;;;;;18.30;11.32;;;-1.30;99.90;;;;;;5112559;28;20175;-76
2022/01/10 05:27:32;;;;;;;15.52;10.07;;;-1.40;99.90;;;;;;5129628;28;20198;-75
2022/01/10 05:29:58;;;;;;;25.80;10.02;;;-1.30;99.90;;;;;;5112497;28;20228;-76
2022/01/10 05:32:24;;;;;;;14.48;10.15;;;-1.30;99.90;;;;;;5109284;28;20178;-75
2022/01/10 05:34:50;;;;;;;20.58;11.48;;;-1.30;99.90;;;;;;5110326;28;20182;-75
2022/01/10 05:37:16;;;;;;;20.27;11.00;;;-1.30;99.90;;;;;;5110222;28;20215;-76
2022/01/10 05:39:42;;;;;;;17.23;10.05;;;-1.30;99.90;;;;;;5110957;28;20214;-76
2022/01/10 05:42:08;;;;;;;16.88;10.05;;;-1.30;99.90;;;;;;5108575;28;20171;-76
2022/01/10 05:44:34;;;;;;;19.00;10.45;;;-1.30;99.90;;;;;;5108643;28;20201;-75
2022/01/10 05:47:01;;;;;;;17.63;9.32;;;-1.40;99.90;;;;;;5110044;28;20592;-76
2022/01/10 05:49:33;;;;;;;15.27;9.38;;;-1.40;99.90;;;;;;5108593;28;20191;-76
2022/01/10 05:52:00;;;;;;;18.30;10.13;;;-1.50;99.90;;;;;;5108696;28;20553;-75
2022/01/10 05:54:26;;;;;;;15.40;8.75;;;-1.50;99.90;;;;;;5124417;28;20178;-76
2022/01/10 05:56:52;;;;;;;10.25;8.23;;;-1.50;99.90;;;;;;5129229;28;20170;-76
2022/01/10 05:59:19;;;;;;;20.30;9.63;;;-1.50;99.90;;;;;;5130046;28;20233;-76
2022/01/10 06:01:46;;;;;;;14.35;9.43;;;-1.50;99.90;;;;;;5129982;28;20163;-76
2022/01/10 06:04:11;;;;;;;17.42;8.40;;;-1.40;99.90;;;;;;5129891;28;20250;-76
2022/01/10 06:06:38;;;;;;;19.75;10.55;;;-1.40;99.90;;;;;;5111727;28;20215;-75
2022/01/10 06:09:04;;;;;;;13.57;8.70;;;-1.40;99.90;;;;;;5121632;28;20259;-76
2022/01/10 06:11:30;;;;;;;15.88;8.75;;;-1.40;99.90;;;;;;5091223;28;20155;-76
2022/01/10 06:13:56;;;;;;;15.50;8.25;;;-1.40;99.90;;;;;;5091150;28;20170;-75
2022/01/10 06:16:21;;;;;;;16.90;8.50;;;-1.40;99.90;;;;;;5109179;28;20164;-75
2022/01/10 06:18:47;;;;;;;12.32;7.63;;;-1.30;99.90;;;;;;5091201;28;20609;-75
2022/01/10 06:21:13;;;;;;;16.02;8.35;;;-1.30;99.90;;;;;;5108164;28;20163;-76
2022/01/10 06:23:39;;;;;;;14.70;8.65;;;-1.30;99.90;;;;;;5109312;28;20163;-76
2022/01/10 06:26:05;;;;;;;17.67;8.23;;;-1.30;99.90;;;;;;5109094;28;20191;-76
2022/01/10 06:28:31;;;;;;;15.00;7.88;;;-1.30;99.90;;;;;;5109086;28;20187;-76
2022/01/10 06:30:57;;;;;;;15.27;8.77;;;-1.30;99.90;;;;;;5109243;28;20178;-76
2022/01/10 06:33:23;;;;;;;14.80;9.20;;;-1.30;99.90;;;;;;5109235;28;20594;-76
2022/01/10 06:35:49;;;;;;;21.50;10.07;;;-1.20;99.90;;;;;;5110425;28;20539;-76
2022/01/10 06:38:15;;;;;;;14.90;8.15;;;-1.20;99.90;;;;;;5109041;28;20195;-76
2022/01/10 06:40:40;;;;;;;14.82;8.10;;;-1.30;99.90;;;;;;5116958;28;20189;-76
2022/01/10 06:43:06;;;;;;;19.38;9.15;;;-1.30;99.90;;;;;;5115863;28;20167;-76
2022/01/10 06:45:34;;;;;;;14.90;9.77;;;-1.20;99.90;;;;;;5107834;28;20156;-76
2022/01/10 06:48:00;;;;;;;19.00;10.90;;;-1.20;99.90;;;;;;5108964;28;20179;-76
2022/01/10 06:50:26;;;;;;;17.40;10.43;;;-1.10;99.90;;;;;;5108872;28;20163;-76
2022/01/10 06:52:54;;;;;;;17.35;11.45;;;-1.20;99.90;;;;;;5090479;28;20185;-76
2022/01/10 06:55:20;;;;;;;15.63;8.95;;;-1.10;99.90;;;;;;5108488;28;20159;-77
2022/01/10 06:57:46;;;;;;;16.58;8.40;;;-1.10;99.90;;;;;;5090310;28;20532;-76
2022/01/10 07:00:12;;;;;;;13.70;8.32;;;-1.10;99.90;;;;;;5117038;28;20248;-76
2022/01/10 07:02:38;;;;;;;12.57;8.50;;;-1.10;99.90;;;;;;5128007;28;20188;-76
2022/01/10 07:05:04;;;;;;;12.60;8.18;;;-1.00;99.90;;;;;;5128991;28;20577;-76
2022/01/10 07:07:30;;;;;;;11.65;7.78;;;-1.00;99.90;;;;;;5110795;28;20195;-76
2022/01/10 07:09:56;;;;;;;13.05;7.43;;;-1.00;99.90;;;;;;5118591;28;20249;-76
2022/01/10 07:12:22;;;;;;;15.25;10.20;;;-0.90;99.90;;;;;;5126339;28;20159;-76
2022/01/10 07:14:48;;;;;;;16.15;8.38;;;-0.80;99.90;;;;;;5132927;28;20165;-76
2022/01/10 07:17:14;;;;;;;17.13;8.57;;;-0.80;99.90;;;;;;5149859;28;20536;-76
2022/01/10 07:19:40;;;;;;;12.93;7.43;;;-0.70;99.90;;;;;;5149757;28;20189;-76
2022/01/10 07:22:06;;;;;;;14.75;8.85;;;-0.70;99.90;;;;;;5148469;28;20193;-76
2022/01/10 07:24:32;;;;;;;13.15;7.75;;;-0.70;99.90;;;;;;5122961;28;20187;-76
2022/01/10 07:26:58;;;;;;;17.42;9.32;;;-0.60;99.90;;;;;;5119995;28;20243;-75
2022/01/10 07:29:25;;;;;;;11.70;7.72;;;-0.50;99.90;;;;;;5113583;28;20191;-76
2022/01/10 07:31:51;;;;;;;11.88;8.38;;;-0.50;99.90;;;;;;5116175;28;20220;-76
2022/01/10 07:34:17;;;;;;;14.70;7.85;;;-0.40;99.90;;;;;;5090345;28;20231;-76
2022/01/10 07:36:43;;;;;;;16.95;7.85;;;-0.30;99.90;;;;;;5108833;28;20234;-75
2022/01/10 07:39:10;;;;;;;11.60;7.80;;;-0.20;99.90;;;;;;5090555;28;20199;-75
2022/01/10 07:41:37;;;;;;;17.25;8.65;;;-0.20;99.90;;;;;;5108510;28;20155;-75
2022/01/10 07:44:03;;;;;;;11.20;7.63;;;-0.10;99.90;;;;;;5108597;28;20180;-76
2022/01/10 07:46:29;;;;;;;17.98;9.30;;;-0.10;99.90;;;;;;5108360;28;20229;-75
2022/01/10 07:48:55;;;;;;;15.10;8.73;;;0.00;99.90;;;;;;5089892;28;20191;-77
2022/01/10 07:51:22;;;;;;;16.60;7.90;;;0.10;99.90;;;;;;5089945;28;20214;-77
2022/01/10 07:53:49;;;;;;;15.15;8.85;;;0.20;99.90;;;;;;5108473;28;20182;-78
2022/01/10 07:56:15;;;;;;;21.75;8.50;;;0.30;99.90;;;;;;5109870;28;20638;-77
2022/01/10 07:58:41;;;;;;;15.07;8.63;;;0.30;99.90;;;;;;5111761;28;20256;-77
2022/01/10 08:01:07;;;;;;;16.98;10.73;;;0.40;99.90;;;;;;5112151;28;20167;-77
2022/01/10 08:03:33;;;;;;;15.65;8.68;;;0.50;99.90;;;;;;5111644;28;20159;-77
2022/01/10 08:05:59;;;;;;;21.48;9.23;;;0.60;99.90;;;;;;5117549;28;20242;-74
2022/01/10 08:08:25;;;;;;;14.85;9.30;;;0.80;99.90;;;;;;5121907;28;20178;-76
2022/01/10 08:10:51;;;;;;;17.80;10.32;;;0.90;99.90;;;;;;5132114;28;20496;-76
2022/01/10 08:13:17;;;;;;;17.58;10.05;;;1.10;99.90;;;;;;5093678;28;20193;-77
2022/01/10 08:15:43;;;;;;;14.15;9.23;;;1.20;99.90;;;;;;5111734;28;20219;-76
2022/01/10 08:18:10;;;;;;;23.20;11.77;;;1.30;99.90;;;;;;5098162;28;20272;-76
2022/01/10 08:20:36;;;;;;;20.90;11.05;;;1.40;99.90;;;;;;5128686;28;20171;-75
2022/01/10 08:23:02;;;;;;;17.40;9.35;;;1.40;99.90;;;;;;5123631;28;20196;-76
2022/01/10 08:25:28;;;;;;;16.02;10.50;;;1.40;99.90;;;;;;5104767;28;20183;-77
2022/01/10 08:27:54;;;;;;;26.25;11.93;;;1.40;99.90;;;;;;5125429;28;20190;-77
2022/01/10 08:30:20;;;;;;;18.40;9.93;;;1.50;99.90;;;;;;5113462;27;20242;-77
2022/01/10 08:32:50;;;;;;;12.85;9.20;;;1.40;99.90;;;;;;5133906;27;20179;-77
2022/01/10 08:35:17;;;;;;;16.52;10.38;;;1.70;99.90;;;;;;5152456;27;20169;-76
2022/01/10 08:37:43;;;;;;;18.30;9.75;;;1.70;99.90;;;;;;5151046;27;20741;-76
2022/01/10 08:40:11;;;;;;;13.75;9.80;;;1.90;99.90;;;;;;5110484;28;20191;-76
2022/01/10 08:42:37;;;;;;;20.92;11.65;;;2.30;99.90;;;;;;5122529;27;20246;-76
2022/01/10 08:45:04;;;;;;;20.05;10.23;;;2.80;99.90;;;;;;5143647;27;20192;-75
2022/01/10 08:47:31;;;;;;;17.75;9.75;;;3.10;99.90;;;;;;5112874;28;20285;-76
2022/01/10 08:49:57;;;;;;;20.38;9.73;;;3.60;99.90;;;;;;5117749;28;20195;-76
2022/01/10 08:52:23;;;;;;;18.65;10.45;;;4.00;99.90;;;;;;5111104;28;20155;-76
2022/01/10 08:54:49;;;;;;;23.65;10.43;;;4.30;99.90;;;;;;5111126;28;20167;-76
2022/01/10 08:57:16;;;;;;;18.23;10.95;;;4.40;99.90;;;;;;5104317;28;20574;-76
2022/01/10 08:59:43;;;;;;;18.90;10.98;;;4.60;99.90;;;;;;5112745;28;20249;-75
2022/01/10 09:02:12;;;;;;;20.80;11.15;;;4.70;99.90;;;;;;5113106;28;20177;-76
2022/01/10 09:04:39;;;;;;;23.13;10.75;;;4.70;99.90;;;;;;5112182;28;20202;-76
2022/01/10 09:07:08;;;;;;;20.08;10.65;;;4.80;99.90;;;;;;5127827;28;20233;-76
2022/01/10 09:09:36;;;;;;;21.20;10.50;;;4.90;99.90;;;;;;5104131;28;20237;-75
2022/01/10 09:12:02;;;;;;;17.80;10.15;;;5.00;99.90;;;;;;5104122;28;20187;-75
2022/01/10 09:14:29;;;;;;;19.00;10.93;;;5.40;99.90;;;;;;5091699;28;20195;-76
2022/01/10 09:16:55;;;;;;;15.75;9.82;;;5.70;99.90;;;;;;5108049;28;20179;-77
2022/01/10 09:19:21;;;;;;;20.23;11.13;;;5.70;99.90;;;;;;5091193;28;20171;-75
2022/01/10 09:21:47;;;;;;;19.58;11.18;;;5.60;99.90;;;;;;5092249;28;20171;-76
2022/01/10 09:24:14;;;;;;;19.95;10.93;;;6.30;99.90;;;;;;5111051;28;20198;-76
2022/01/10 09:26:40;;;;;;;23.88;11.38;;;7.00;99.90;;;;;;5118376;28;20187;-76
2022/01/10 09:29:07;;;;;;;21.00;11.65;;;7.30;99.90;;;;;;5092189;28;20155;-75
2022/01/10 09:31:33;;;;;;;24.05;11.95;;;7.50;99.90;;;;;;5110476;28;20162;-76
2022/01/10 09:34:00;;;;;;;20.40;12.52;;;7.40;99.90;;;;;;5109367;28;20192;-76
2022/01/10 09:36:31;;;;;;;27.17;11.68;;;7.50;99.90;;;;;;5091980;28;20193;-76
2022/01/10 09:38:58;;;;;;;18.92;13.20;;;8.30;99.90;;;;;;5091806;28;20257;-76
2022/01/10 09:41:25;;;;;;;21.73;13.07;;;9.10;99.90;;;;;;5097791;28;20183;-75
2022/01/10 09:43:59;;;;;;;24.95;13.20;;;9.80;99.90;;;;;;5090211;28;20168;-75
2022/01/10 09:46:26;;;;;;;25.98;13.00;;;10.30;99.90;;;;;;5091503;28;20183;-75
2022/01/10 09:48:53;;;;;;;25.27;12.85;;;10.70;99.90;;;;;;5091931;28;20210;-76
2022/01/10 09:51:22;;;;;;;29.33;14.13;;;10.20;99.90;;;;;;5091720;28;20168;-76
2022/01/10 09:53:49;;;;;;;22.45;14.35;;;10.20;99.90;;;;;;5091053;28;20183;-75
2022/01/10 09:56:15;;;;;;;29.20;13.65;;;9.90;99.90;;;;;;5091282;28;20164;-76
2022/01/10 09:58:41;;;;;;;31.42;13.75;;;9.50;99.90;;;;;;5086100;28;20247;-74
2022/01/10 10:01:07;;;;;;;24.73;13.60;;;9.30;99.90;;;;;;5071390;28;20176;-75
2022/01/10 10:03:33;;;;;;;26.50;13.07;;;8.60;99.90;;;;;;5071170;28;20621;-75
2022/01/10 10:05:59;;;;;;;25.58;13.80;;;8.00;99.90;;;;;;5090823;28;20758;-79
2022/01/10 10:08:27;;;;;;;32.70;14.07;;;7.70;99.90;;;;;;5109392;28;20163;-78
2022/01/10 10:10:54;;;;;;;23.75;13.20;;;7.70;99.90;;;;;;5109554;28;20151;-76
2022/01/10 10:13:20;;;;;;;28.17;13.70;;;7.30;99.90;;;;;;5109341;28;20194;-76
2022/01/10 10:15:47;;;;;;;22.70;12.15;;;6.90;99.90;;;;;;5108814;28;20199;-77
2022/01/10 10:18:15;;;;;;;19.90;11.68;;;6.70;99.90;;;;;;5091112;28;20602;-75
2022/01/10 10:20:43;;;;;;;22.13;12.43;;;6.80;99.90;;;;;;5109367;28;20171;-76
2022/01/10 10:23:14;;;;;;;27.02;13.38;;;6.60;99.90;;;;;;5109428;28;20159;-76
2022/01/10 10:25:58;;;;;;;33.00;12.90;;;6.40;99.90;;;;;;5111934;28;20198;-75
2022/01/10 10:28:23;;;;;;;22.80;11.18;;;6.30;99.90;;;;;;5129666;28;20159;-74
2022/01/10 10:30:56;;;;;;;26.58;11.10;;;6.20;99.90;;;;;;5129797;28;20229;-75
2022/01/10 10:33:23;;;;;;;15.10;10.65;;;6.00;99.90;;;;;;5111442;28;20253;-75
2022/01/10 10:36:00;;;;;;;18.45;10.50;;;5.90;99.90;;;;;;5109712;28;20206;-76
2022/01/10 10:38:26;;;;;;;17.10;9.52;;;5.70;99.90;;;;;;5109187;28;20155;-75
2022/01/10 10:40:52;;;;;;;3.50;1.38;;;5.60;99.90;;;;;;5108957;28;20166;-77
2022/01/10 10:43:18;;;;;;;17.98;5.57;;;5.80;99.90;;;;;;5108972;28;20190;-75
2022/01/10 10:45:48;;;;;;;2.42;1.33;;;6.10;99.90;;;;;;5108874;28;20255;-75
2022/01/10 10:48:16;;;;;;;1.30;0.80;;;6.20;99.90;;;;;;5108405;28;20194;-76
2022/01/10 10:50:45;;;;;;;7.60;0.98;;;6.20;99.90;;;;;;5090820;28;20175;-75
2022/01/10 10:53:14;;;;;;;19.70;10.43;;;6.30;99.90;;;;;;5090490;28;20177;-76
2022/01/10 10:55:42;;;;;;;17.40;12.50;;;6.30;99.90;;;;;;5108942;28;20191;-76
2022/01/10 10:58:09;;;;;;;19.45;13.20;;;5.90;99.90;;;;;;5107460;28;20168;-75
2022/01/10 11:00:36;;;;;;;22.75;13.68;;;5.60;99.90;;;;;;5111042;28;20181;-75
2022/01/10 11:03:03;;;;;;;27.60;12.73;;;5.50;99.90;;;;;;5111213;28;20166;-75
2022/01/10 11:05:30;;;;;;;25.27;12.98;;;5.40;99.90;;;;;;5110903;28;20186;-78
2022/01/10 11:07:57;;;;;;;19.08;12.40;;;5.20;99.90;;;;;;5110431;28;20219;-76
2022/01/10 11:10:24;;;;;;;31.67;14.10;;;5.00;99.90;;;;;;5111045;28;20171;-76
2022/01/10 11:12:57;;;;;;;22.27;14.27;;;4.90;99.90;;;;;;5101396;28;20171;-77
2022/01/10 11:15:24;;;;;;;24.27;13.32;;;4.80;99.90;;;;;;5090253;28;20206;-76
2022/01/10 11:17:59;;;;;;;23.42;13.85;;;4.40;99.90;;;;;;5090185;28;20171;-75
2022/01/10 11:20:25;;;;;;;27.10;13.15;;;4.20;99.90;;;;;;5090701;28;20202;-76
2022/01/10 11:22:54;;;;;;;18.75;10.75;;;4.10;99.90;;;;;;5108709;28;20151;-76
2022/01/10 11:25:33;;;;;;;24.15;12.88;;;4.10;99.90;;;;;;5108723;28;20198;-75
2022/01/10 11:28:06;;;;;;;23.10;12.77;;;4.10;99.90;;;;;;5108684;28;20167;-76
2022/01/10 11:30:41;;;;;;;29.27;12.55;;;4.00;99.90;;;;;;5108649;28;20162;-75
2022/01/10 11:33:11;;;;;;;22.90;13.23;;;4.00;99.90;;;;;;5094282;28;20217;-75
2022/01/10 11:35:41;;;;;;;18.58;12.57;;;4.00;99.90;;;;;;5112443;28;20191;-76
2022/01/10 11:38:33;;;;;;;30.05;13.00;;;4.10;99.90;;;;;;5112423;28;20147;-75
2022/01/10 11:41:04;;;;;;;20.23;11.70;;;4.00;99.90;;;;;;5082703;28;20183;-75
2022/01/10 11:43:37;;;;;;;25.13;13.27;;;4.00;99.90;;;;;;5131066;28;20167;-75
2022/01/10 11:46:10;;;;;;;24.85;12.32;;;4.00;99.90;;;;;;5132447;28;20213;-75
2022/01/10 11:48:49;;;;;;;20.75;13.23;;;4.00;99.90;;;;;;5093766;28;20174;-76
2022/01/10 11:51:21;;;;;;;19.80;11.15;;;4.00;99.90;;;;;;5093050;28;20194;-76
2022/01/10 11:53:51;;;;;;;19.73;12.07;;;4.10;99.90;;;;;;5112094;28;20163;-76
2022/01/10 11:56:26;;;;;;;27.42;12.70;;;4.50;99.90;;;;;;5093790;28;20175;-76
2022/01/10 11:59:13;;;;;;;21.95;10.73;;;4.50;99.90;;;;;;5111926;28;20590;-75
2022/01/10 12:01:48;;;;;;;26.83;14.07;;;4.60;99.90;;;;;;5111519;28;20242;-75
2022/01/10 12:04:14;;;;;;;25.02;11.45;;;4.70;99.90;;;;;;5111851;28;20201;-76
2022/01/10 12:06:41;;;;;;;20.52;12.35;;;5.00;99.90;;;;;;5093630;28;20291;-76
2022/01/10 12:09:08;;;;;;;23.23;11.93;;;5.30;99.90;;;;;;5111837;28;20221;-76
2022/01/10 12:11:37;;;;;;;25.42;11.77;;;5.30;99.90;;;;;;5111272;28;20155;-76
2022/01/10 12:14:05;;;;;;;19.25;11.88;;;5.90;99.90;;;;;;5131485;28;20163;-75
2022/01/10 12:16:31;;;;;;;21.55;11.40;;;7.30;99.90;;;;;;5132148;28;20163;-76
2022/01/10 12:18:57;;;;;;;37.83;16.13;;;8.80;99.90;;;;;;5113889;28;20180;-76
2022/01/10 12:21:25;;;;;;;28.15;14.63;;;8.50;99.90;;;;;;5131539;28;20166;-75
2022/01/10 12:23:52;;;;;;;23.45;12.77;;;8.00;99.90;;;;;;5113398;28;20662;-76
2022/01/10 12:26:23;;;;;;;23.38;12.27;;;8.70;99.90;;;;;;5131915;28;20204;-75
2022/01/10 12:28:55;;;;;;;24.88;11.98;;;9.60;99.90;;;;;;5113435;28;20163;-76
2022/01/10 12:31:23;;;;;;;15.45;11.00;;;9.90;99.90;;;;;;5131323;28;20162;-76
2022/01/10 12:33:50;;;;;;;18.48;12.85;;;10.80;99.90;;;;;;5131364;28;20162;-75
2022/01/10 12:36:18;;;;;;;22.80;11.48;;;11.00;99.90;;;;;;5131781;28;20542;-76
2022/01/10 12:38:44;;;;;;;20.23;11.48;;;9.20;99.90;;;;;;5131703;28;20179;-75
2022/01/10 12:41:10;;;;;;;18.45;10.70;;;8.50;99.90;;;;;;5113308;28;20174;-75
2022/01/10 12:43:36;;;;;;;16.10;9.82;;;7.80;99.90;;;;;;5131022;28;20645;-74